Wakefield, Louisiana
Current Conditions -  °F | °C
As of 3:55 PM on Wednesday 28 Jan 2015 (Local Time) from KHZR Reporting Station
Clear Clear  
Wind Chill: 71°   Ceiling: Unl
Heat Index: 71°   Visibility: 10mi
Dew Point: 39°   Wind: 8mph
Humidity: 32%   Direction: 130°SE
Pressure: 30.2"   Gusts: NA
Location:  30.89°N, 91.35°W
Report Text: KHZR 282155Z AUTO 13007KT 10SM CLR 21/04 A3020 RMK AO2 T02140041
Loading
Personal Weather Stations






























Interactive Weather Map New forecast layout! Learn more

10-Day Weather Forecast

Advertisements
Track Severe Weather on mobile